首页
METAR-TAF:

METAR-TAF

机场 :

Monte Cimone, 意大利

纬度: 44-12N, 经度: 010-42E, 海拔: 2165米

当前天气观测

该预报发布于1小时和11分钟前的05:55 UTC
风速27节,风向南转西南
温度 7°C
湿度 70%
气压 1022 hPa
能见度10公里或以上
1500米以下无云,无积雨云

METAR: LIVC 200555Z 20027KT CAVOK 07/02 Q1022 RMK SKC MON LIB VAL NIL VIS MIN 9999

时间: 09:06 (07:06 UTC)


TAF: 丢失

超过4000个机场的气象观测和天气预报(METAR&TAF报告)。

可查询的气象台以黄色和红色小点在地图上表示。

将鼠标移到小点上方,可查看气象台名称。

然后点击查看天气观测和预报。

如需切换地图:点击带黑十字的绿色按钮放大地图;点击带横线的绿色按钮缩小地图;或者点击绿色箭头查看邻近地区的地图。


METAR-TAF: